createdAt,value
2022-08-12T00:00:30.244Z,7.70
2022-08-12T00:02:02.905Z,6.20
2022-08-12T00:02:31.244Z,6.30
2022-08-12T00:03:30.277Z,6.30
2022-08-12T00:04:30.201Z,7.80
2022-08-12T00:05:30.223Z,6.30
2022-08-12T00:06:30.180Z,6.30
2022-08-12T00:07:31.194Z,8.10
2022-08-12T00:08:35.844Z,7.20
2022-08-12T00:09:31.169Z,5.90
2022-08-12T00:10:30.164Z,7.00
2022-08-12T00:11:30.154Z,7.80
2022-08-12T00:12:30.192Z,6.50
2022-08-12T00:13:30.128Z,6.60
2022-08-12T00:14:30.140Z,8.30
2022-08-12T00:15:30.109Z,8.90
2022-08-12T00:16:30.120Z,6.30
2022-08-12T00:17:30.099Z,7.50
2022-08-12T00:18:30.121Z,6.10
2022-08-12T00:19:30.069Z,7.10
2022-08-12T00:20:30.067Z,7.20
2022-08-12T00:21:30.108Z,7.00
2022-08-12T00:22:30.117Z,7.10
2022-08-12T00:23:30.035Z,6.80
2022-08-12T00:24:30.018Z,7.90
2022-08-12T00:25:51.250Z,10.90
2022-08-12T00:26:31.016Z,8.30
2022-08-12T00:27:44.040Z,7.40
2022-08-12T00:28:31.047Z,7.60
2022-08-12T00:29:29.992Z,7.20
2022-08-12T00:30:29.972Z,10.70
2022-08-12T00:31:29.973Z,7.30
2022-08-12T00:32:54.287Z,6.80
2022-08-12T00:33:36.445Z,8.40
2022-08-12T00:34:30.931Z,8.20
2022-08-12T00:35:36.420Z,7.50
2022-08-12T00:36:34.850Z,8.00
2022-08-12T00:37:30.918Z,10.10
2022-08-12T00:38:29.882Z,7.60
2022-08-12T00:39:30.917Z,8.20
2022-08-12T00:40:29.912Z,8.70
2022-08-12T00:41:29.885Z,10.30
2022-08-12T00:42:29.875Z,7.60
2022-08-12T00:43:29.832Z,7.10
2022-08-12T00:44:29.867Z,7.00
2022-08-12T00:45:29.837Z,7.60
2022-08-12T00:46:29.812Z,8.60
2022-08-12T00:47:29.835Z,7.90
2022-08-12T00:48:29.837Z,7.50
2022-08-12T00:49:29.799Z,7.30
2022-08-12T00:50:29.817Z,7.00
2022-08-12T00:51:29.779Z,7.10
2022-08-12T00:52:29.782Z,7.50
2022-08-12T00:53:29.790Z,6.90
2022-08-12T00:54:29.743Z,9.20
2022-08-12T00:55:29.731Z,7.50
2022-08-12T00:56:29.722Z,8.90
2022-08-12T00:57:29.730Z,8.80
2022-08-12T00:58:29.717Z,6.30
2022-08-12T00:59:29.687Z,10.10
2022-08-12T01:00:29.704Z,8.30
2022-08-12T01:01:29.694Z,7.90
2022-08-12T01:02:30.723Z,7.10
2022-08-12T01:03:30.657Z,5.60
2022-08-12T01:04:29.633Z,7.20
2022-08-12T01:05:29.630Z,10.00
2022-08-12T01:06:29.619Z,6.10
2022-08-12T01:07:29.627Z,10.00
2022-08-12T01:08:29.619Z,6.70
2022-08-12T01:09:29.589Z,8.60
2022-08-12T01:10:32.650Z,10.60
2022-08-12T01:11:29.581Z,8.90
2022-08-12T01:12:29.590Z,7.30
2022-08-12T01:13:29.583Z,8.20
2022-08-12T01:14:29.571Z,11.20
2022-08-12T01:15:29.554Z,7.70
2022-08-12T01:16:29.538Z,7.30
2022-08-12T01:17:29.559Z,8.10
2022-08-12T01:18:29.513Z,7.80
2022-08-12T01:19:29.503Z,7.10
2022-08-12T01:20:29.513Z,9.80
2022-08-12T01:21:29.485Z,9.00
2022-08-12T01:22:29.464Z,7.00
2022-08-12T01:23:29.462Z,6.20
2022-08-12T01:24:31.532Z,7.20
2022-08-12T01:25:29.452Z,8.20
2022-08-12T01:26:29.454Z,6.90
2022-08-12T01:27:29.405Z,9.20
2022-08-12T01:28:29.425Z,7.00
2022-08-12T01:29:32.584Z,12.40
2022-08-12T01:30:29.434Z,9.60
2022-08-12T01:31:29.472Z,8.20
2022-08-12T01:32:29.365Z,6.20
2022-08-12T01:33:29.373Z,6.40
2022-08-12T01:34:36.843Z,6.60
2022-08-12T01:35:30.349Z,7.00
2022-08-12T01:36:29.334Z,6.30
2022-08-12T01:37:29.284Z,8.90
2022-08-12T01:38:29.574Z,6.90
2022-08-12T01:39:29.381Z,9.80
2022-08-12T01:40:33.564Z,6.90
2022-08-12T01:41:30.295Z,6.50
2022-08-12T01:42:29.280Z,7.30
2022-08-12T01:43:29.285Z,6.50
2022-08-12T01:44:29.249Z,7.30
2022-08-12T01:45:29.264Z,8.40
2022-08-12T01:46:30.244Z,7.60
2022-08-12T01:47:29.239Z,7.60
2022-08-12T01:48:29.228Z,7.50
2022-08-12T01:49:29.222Z,6.70
2022-08-12T01:50:29.189Z,8.50
2022-08-12T01:52:20.996Z,9.00
2022-08-12T01:52:30.176Z,7.40
2022-08-12T01:53:29.187Z,6.60
2022-08-12T01:54:30.148Z,6.90
2022-08-12T01:55:29.128Z,8.20
2022-08-12T01:56:29.149Z,6.90
2022-08-12T01:57:59.822Z,9.20
2022-08-12T01:58:30.150Z,8.80
2022-08-12T01:59:29.102Z,11.10
2022-08-12T02:00:36.022Z,6.90
2022-08-12T02:01:30.145Z,6.30
2022-08-12T02:02:29.076Z,7.00
2022-08-12T02:03:29.076Z,7.40
2022-08-12T02:04:29.075Z,7.50
2022-08-12T02:05:29.045Z,9.40
2022-08-12T02:06:29.047Z,8.80
2022-08-12T02:07:29.024Z,6.80
2022-08-12T02:08:29.048Z,6.70
2022-08-12T02:09:28.995Z,8.40
2022-08-12T02:10:49.302Z,7.60
2022-08-12T02:11:29.980Z,8.10
2022-08-12T02:12:31.378Z,7.80
2022-08-12T02:13:42.086Z,8.10
2022-08-12T02:14:29.953Z,7.90
2022-08-12T02:15:28.935Z,9.30
2022-08-12T02:16:28.948Z,9.10
2022-08-12T02:17:55.180Z,13.50
2022-08-12T02:18:29.933Z,9.70
2022-08-12T02:19:28.921Z,7.80
2022-08-12T02:20:35.232Z,6.80
2022-08-12T02:21:29.869Z,9.60
2022-08-12T02:22:28.910Z,8.60
2022-08-12T02:23:28.893Z,9.10
2022-08-12T02:24:28.870Z,10.40
2022-08-12T02:25:28.838Z,8.20
2022-08-12T02:26:28.850Z,8.60
2022-08-12T02:27:28.824Z,8.40
2022-08-12T02:28:28.817Z,10.50
2022-08-12T02:29:28.825Z,8.10
2022-08-12T02:30:41.698Z,6.80
2022-08-12T02:31:29.800Z,8.80
2022-08-12T02:32:28.778Z,8.30
2022-08-12T02:33:28.774Z,7.30
2022-08-12T02:34:28.787Z,9.00
2022-08-12T02:35:28.772Z,9.10
2022-08-12T02:36:28.772Z,8.10
2022-08-12T02:37:28.749Z,10.60
2022-08-12T02:38:28.747Z,9.00
2022-08-12T02:39:28.740Z,9.40
2022-08-12T02:40:29.718Z,9.50
2022-08-12T02:41:28.693Z,9.40
2022-08-12T02:42:28.701Z,8.90
2022-08-12T02:43:28.681Z,10.50
2022-08-12T02:44:28.688Z,8.70
2022-08-12T02:45:28.643Z,9.30
2022-08-12T02:46:28.636Z,9.80
2022-08-12T02:47:59.230Z,8.90
2022-08-12T02:48:29.660Z,8.70
2022-08-12T02:49:28.628Z,8.40
2022-08-12T02:50:28.604Z,8.90
2022-08-12T02:51:28.582Z,9.50
2022-08-12T02:52:28.587Z,10.40
2022-08-12T02:53:28.613Z,9.40
2022-08-12T02:54:28.566Z,7.80
2022-08-12T02:55:34.305Z,8.40
2022-08-12T02:56:29.585Z,9.40
2022-08-12T02:57:28.522Z,7.20
2022-08-12T02:58:32.890Z,8.70
2022-08-12T02:59:29.512Z,7.60
2022-08-12T03:00:28.521Z,8.30
2022-08-12T03:01:28.617Z,8.40
2022-08-12T03:02:28.472Z,9.70
2022-08-12T03:03:28.520Z,9.50
2022-08-12T03:04:28.497Z,12.20
2022-08-12T03:05:28.457Z,7.40
2022-08-12T03:06:28.471Z,6.90
2022-08-12T03:07:39.691Z,13.60
2022-08-12T03:08:32.409Z,7.50
2022-08-12T03:09:29.961Z,9.40
2022-08-12T03:10:37.694Z,7.50
2022-08-12T03:11:29.392Z,8.20
2022-08-12T03:12:33.694Z,7.10
2022-08-12T03:13:29.379Z,7.30
2022-08-12T03:14:28.373Z,7.30
2022-08-12T03:15:28.347Z,10.40
2022-08-12T03:16:28.338Z,8.90
2022-08-12T03:17:28.349Z,8.00
2022-08-12T03:18:28.935Z,8.30
2022-08-12T03:19:28.327Z,8.20
2022-08-12T03:20:28.628Z,7.70
2022-08-12T03:21:52.817Z,6.40
2022-08-12T03:22:29.259Z,8.50
2022-08-12T03:23:30.301Z,8.40
2022-08-12T03:24:28.272Z,8.20
2022-08-12T03:25:28.259Z,7.60
2022-08-12T03:26:28.246Z,7.50
2022-08-12T03:27:28.202Z,8.20
2022-08-12T03:28:28.208Z,7.70
2022-08-12T03:29:28.243Z,7.50
2022-08-12T03:30:28.190Z,10.10
2022-08-12T03:31:28.185Z,9.40
2022-08-12T03:32:36.221Z,8.90
2022-08-12T03:33:29.154Z,7.70
2022-08-12T03:34:29.169Z,9.20
2022-08-12T03:35:40.066Z,8.20
2022-08-12T03:36:29.143Z,8.20
2022-08-12T03:37:28.151Z,7.60
2022-08-12T03:38:28.161Z,9.10
2022-08-12T03:39:36.475Z,7.00
2022-08-12T03:40:29.133Z,9.20
2022-08-12T03:41:28.109Z,8.90
2022-08-12T03:42:28.286Z,9.00
2022-08-12T03:43:28.085Z,10.20
2022-08-12T03:44:28.075Z,9.90
2022-08-12T03:45:28.047Z,9.80
2022-08-12T03:46:28.056Z,9.40
2022-08-12T03:47:28.035Z,10.70
2022-08-12T03:48:28.017Z,8.70
2022-08-12T03:49:28.039Z,8.50
2022-08-12T03:50:27.999Z,8.30
2022-08-12T03:51:28.006Z,8.30
2022-08-12T03:52:27.977Z,7.80
2022-08-12T03:53:27.970Z,7.00
2022-08-12T03:54:27.975Z,9.10
2022-08-12T03:55:27.956Z,8.70
2022-08-12T03:56:27.942Z,8.60
2022-08-12T03:57:27.929Z,7.70
2022-08-12T03:58:27.928Z,8.70
2022-08-12T03:59:27.938Z,10.00
2022-08-12T04:00:27.883Z,8.10
2022-08-12T04:01:27.966Z,7.80
2022-08-12T04:02:27.909Z,8.70
2022-08-12T04:03:27.882Z,8.90
2022-08-12T04:04:27.896Z,7.40
2022-08-12T04:05:54.618Z,8.50
2022-08-12T04:06:35.287Z,8.70
2022-08-12T04:07:28.846Z,8.20
2022-08-12T04:08:27.813Z,7.50
2022-08-12T04:09:27.812Z,10.20
2022-08-12T04:10:27.807Z,9.10
2022-08-12T04:11:32.041Z,8.40
2022-08-12T04:12:32.442Z,9.80
2022-08-12T04:13:31.877Z,8.70
2022-08-12T04:14:27.763Z,9.60
2022-08-12T04:15:33.425Z,9.20
2022-08-12T04:16:32.995Z,8.20
2022-08-12T04:17:31.763Z,9.10
2022-08-12T04:18:30.169Z,8.40
2022-08-12T04:19:30.188Z,8.60
2022-08-12T04:20:30.433Z,7.60
2022-08-12T04:21:32.078Z,8.40
2022-08-12T04:22:27.687Z,8.10
2022-08-12T04:23:27.689Z,11.40
2022-08-12T04:24:27.699Z,8.50
2022-08-12T04:25:27.671Z,7.50
2022-08-12T04:26:27.675Z,7.80
2022-08-12T04:27:27.640Z,8.30
2022-08-12T04:28:27.625Z,8.00
2022-08-12T04:30:29.263Z,8.00
2022-08-12T04:30:32.063Z,8.10
2022-08-12T04:31:28.589Z,7.50
2022-08-12T04:32:27.597Z,8.10
2022-08-12T04:33:27.571Z,8.30
2022-08-12T04:34:27.587Z,9.80
2022-08-12T04:35:27.574Z,10.60
2022-08-12T04:36:27.541Z,10.70
2022-08-12T04:37:27.547Z,10.60
2022-08-12T04:38:27.556Z,8.30
2022-08-12T04:39:27.553Z,9.30
2022-08-12T04:40:28.438Z,9.70
2022-08-12T04:41:27.498Z,9.50
2022-08-12T04:42:27.477Z,9.40
2022-08-12T04:44:00.725Z,9.30
2022-08-12T04:44:28.478Z,9.60
2022-08-12T04:45:27.450Z,8.20
2022-08-12T04:46:33.548Z,10.90
2022-08-12T04:47:29.583Z,8.20
2022-08-12T04:48:27.524Z,9.70
2022-08-12T04:49:28.836Z,9.00
2022-08-12T04:50:34.913Z,8.70
2022-08-12T04:51:28.359Z,8.80
2022-08-12T04:52:30.655Z,8.70
2022-08-12T04:53:28.353Z,8.90
2022-08-12T04:54:27.379Z,9.70
2022-08-12T04:55:27.361Z,9.70
2022-08-12T04:56:27.368Z,8.40
2022-08-12T04:57:28.308Z,8.70
2022-08-12T04:58:29.342Z,8.70
2022-08-12T04:59:27.314Z,9.10
2022-08-12T05:00:27.288Z,10.80
2022-08-12T05:01:28.297Z,9.80
2022-08-12T05:02:27.301Z,8.60
2022-08-12T05:03:27.259Z,9.40
2022-08-12T05:04:27.276Z,10.50
2022-08-12T05:05:27.272Z,9.20
2022-08-12T05:06:27.262Z,9.60
2022-08-12T05:07:27.241Z,9.20
2022-08-12T05:08:27.209Z,10.10
2022-08-12T05:09:27.213Z,9.40
2022-08-12T05:10:33.859Z,8.70
2022-08-12T05:11:28.180Z,10.90
2022-08-12T05:12:27.207Z,8.70
2022-08-12T05:13:27.163Z,9.00
2022-08-12T05:14:27.175Z,8.60
2022-08-12T05:15:29.135Z,11.00
2022-08-12T05:16:30.940Z,8.10
2022-08-12T05:17:28.486Z,9.50
2022-08-12T05:18:29.264Z,9.30
2022-08-12T05:19:27.102Z,9.20
2022-08-12T05:20:27.096Z,9.70
2022-08-12T05:21:27.087Z,9.00
2022-08-12T05:22:27.082Z,8.10
2022-08-12T05:23:27.054Z,9.70
2022-08-12T05:24:27.051Z,8.80
2022-08-12T05:25:27.039Z,8.60
2022-08-12T05:26:27.035Z,10.10
2022-08-12T05:27:27.044Z,9.00
2022-08-12T05:28:27.353Z,11.60
2022-08-12T05:30:07.906Z,10.50
2022-08-12T05:30:27.996Z,8.40
2022-08-12T05:31:40.363Z,8.60
2022-08-12T05:32:27.972Z,9.10
2022-08-12T05:33:26.927Z,10.50
2022-08-12T05:34:26.959Z,13.30
2022-08-12T05:35:26.935Z,10.60
2022-08-12T05:36:26.928Z,12.00
2022-08-12T05:37:26.923Z,8.80
2022-08-12T05:38:26.900Z,11.80
2022-08-12T05:39:26.961Z,11.30
2022-08-12T05:40:26.863Z,9.10
2022-08-12T05:41:26.848Z,9.00
2022-08-12T05:42:31.088Z,9.80
2022-08-12T05:43:27.841Z,7.80
2022-08-12T05:44:26.830Z,9.80
2022-08-12T05:45:26.857Z,11.80
2022-08-12T05:46:26.869Z,12.10
2022-08-12T05:47:44.851Z,10.80
2022-08-12T05:48:27.802Z,9.40
2022-08-12T05:49:26.785Z,12.50
2022-08-12T05:50:26.793Z,12.40
2022-08-12T05:51:40.673Z,11.10
2022-08-12T05:52:27.913Z,9.20
2022-08-12T05:53:26.778Z,10.10
2022-08-12T05:54:41.115Z,11.00
2022-08-12T05:55:31.330Z,10.50
2022-08-12T05:56:27.710Z,11.40
2022-08-12T05:57:26.700Z,13.80
2022-08-12T05:58:26.709Z,10.70
2022-08-12T05:59:26.701Z,9.10
2022-08-12T06:00:26.680Z,8.60
2022-08-12T06:02:11.981Z,8.30
2022-08-12T06:02:28.213Z,9.30
2022-08-12T06:03:26.631Z,9.70
2022-08-12T06:04:26.616Z,10.50
2022-08-12T06:05:26.606Z,15.30
2022-08-12T06:06:27.817Z,7.70
2022-08-12T06:08:00.311Z,11.60
2022-08-12T06:08:27.567Z,7.90
2022-08-12T06:09:26.553Z,10.00
2022-08-12T06:10:32.401Z,6.80
2022-08-12T06:11:27.515Z,7.10
2022-08-12T06:12:27.517Z,7.70
2022-08-12T06:13:52.552Z,7.00
2022-08-12T06:14:27.492Z,8.80
2022-08-12T06:15:26.500Z,6.60
2022-08-12T06:16:26.549Z,7.30
2022-08-12T06:17:26.483Z,8.20
2022-08-12T06:18:29.788Z,7.70
2022-08-12T06:20:22.846Z,11.30
2022-08-12T06:20:30.212Z,8.40
2022-08-12T06:21:27.465Z,8.00
2022-08-12T06:22:36.765Z,7.70
2022-08-12T06:23:26.431Z,9.00
2022-08-12T06:24:26.445Z,7.00
2022-08-12T06:25:26.515Z,7.90
2022-08-12T06:26:26.407Z,9.80
2022-08-12T06:28:10.446Z,6.30
2022-08-12T06:28:27.382Z,7.00
2022-08-12T06:30:09.343Z,6.60
2022-08-12T06:30:36.838Z,6.70
2022-08-12T06:31:28.453Z,6.60
2022-08-12T06:32:27.701Z,8.60
2022-08-12T06:33:55.346Z,8.60
2022-08-12T06:35:26.181Z,7.60
2022-08-12T06:35:48.209Z,10.70
2022-08-12T06:36:29.882Z,5.30
2022-08-12T06:37:26.316Z,7.20
2022-08-12T06:38:26.302Z,8.00
2022-08-12T06:44:05.124Z,8.10
2022-08-12T06:44:53.288Z,6.50
2022-08-12T06:45:52.296Z,5.30
2022-08-12T06:46:54.184Z,6.00
2022-08-12T06:48:04.257Z,6.00
2022-08-12T06:49:05.403Z,4.90
2022-08-12T06:50:02.813Z,6.70
2022-08-12T06:51:56.833Z,5.80
2022-08-12T06:52:52.204Z,5.10
2022-08-12T06:53:52.189Z,4.70
2022-08-12T06:54:52.198Z,7.30
2022-08-12T06:56:16.279Z,6.60
2022-08-12T06:58:29.852Z,5.00
2022-08-12T06:59:27.860Z,6.40
2022-08-12T07:00:32.450Z,5.10
2022-08-12T07:01:31.620Z,7.10
2022-08-12T07:02:29.394Z,7.30
2022-08-12T07:03:37.289Z,8.50
2022-08-12T07:04:37.479Z,6.80
2022-08-12T07:05:35.217Z,5.30
2022-08-12T07:06:27.691Z,5.50
2022-08-12T07:07:27.665Z,6.30
2022-08-12T07:08:27.651Z,6.90
2022-08-12T07:10:00.008Z,11.50
2022-08-12T07:10:28.632Z,5.90
2022-08-12T07:11:28.213Z,6.50
2022-08-12T07:12:28.071Z,5.50
2022-08-12T07:13:27.691Z,4.60
2022-08-12T07:14:27.724Z,6.40
2022-08-12T07:15:35.050Z,5.20
2022-08-12T07:16:36.668Z,4.40
2022-08-12T07:17:34.461Z,4.20
2022-08-12T07:18:37.150Z,5.90
2022-08-12T07:19:40.638Z,4.90
2022-08-12T07:21:59.697Z,5.10
2022-08-12T07:22:38.363Z,4.70
2022-08-12T07:24:39.932Z,4.40
2022-08-12T07:25:41.197Z,5.00
2022-08-12T07:26:36.864Z,5.40
2022-08-12T07:28:28.704Z,5.80
2022-08-12T07:30:00.075Z,3.70
2022-08-12T07:30:29.432Z,4.50
2022-08-12T07:31:27.669Z,5.10
2022-08-12T07:32:35.878Z,3.30
2022-08-12T07:33:35.956Z,4.40
2022-08-12T07:34:36.697Z,4.00
2022-08-12T07:35:41.567Z,4.00
2022-08-12T07:36:28.433Z,6.50
2022-08-12T07:37:27.450Z,3.90
2022-08-12T07:38:33.356Z,5.30
2022-08-12T07:39:35.880Z,3.20
2022-08-12T07:40:33.826Z,4.30
2022-08-12T07:41:30.167Z,4.70
2022-08-12T07:42:28.183Z,6.50
2022-08-12T07:43:36.410Z,6.50
2022-08-12T07:44:28.318Z,5.90
2022-08-12T07:45:35.013Z,7.10
2022-08-12T07:46:27.287Z,5.70
2022-08-12T07:47:27.266Z,4.90
2022-08-12T07:48:27.273Z,4.20
2022-08-12T07:49:27.263Z,6.30
2022-08-12T07:50:27.237Z,4.50
2022-08-12T07:51:27.247Z,4.50
2022-08-12T07:52:27.343Z,5.20
2022-08-12T07:53:27.234Z,4.90
2022-08-12T07:54:27.197Z,6.20
2022-08-12T07:55:27.183Z,5.30
2022-08-12T07:56:27.195Z,4.60
2022-08-12T07:57:27.167Z,2.70
2022-08-12T07:58:27.179Z,4.80
2022-08-12T07:59:27.141Z,4.40
2022-08-12T08:00:27.129Z,7.20
2022-08-12T08:01:27.202Z,4.30
2022-08-12T08:02:27.349Z,4.50
2022-08-12T08:03:27.109Z,3.80
2022-08-12T08:04:27.085Z,3.90
2022-08-12T08:05:27.094Z,4.30
2022-08-12T08:06:27.081Z,5.60
2022-08-12T08:07:27.082Z,3.10
2022-08-12T08:08:27.057Z,4.80
2022-08-12T08:09:27.041Z,5.90
2022-08-12T08:10:27.043Z,4.90
2022-08-12T08:11:27.018Z,4.10
2022-08-12T08:12:27.175Z,3.80
2022-08-12T08:13:27.119Z,3.20
2022-08-12T08:14:27.017Z,2.30
2022-08-12T08:15:51.158Z,4.90
2022-08-12T08:16:32.988Z,3.60
2022-08-12T08:17:28.051Z,2.90
2022-08-12T08:18:27.842Z,3.00
2022-08-12T08:19:29.000Z,4.70
2022-08-12T08:20:29.205Z,3.50
2022-08-12T08:21:27.177Z,3.50
2022-08-12T08:22:40.780Z,3.30
2022-08-12T08:23:37.832Z,3.40
2022-08-12T08:24:40.384Z,4.40
2022-08-12T08:25:35.704Z,4.10
2022-08-12T08:26:27.876Z,6.10
2022-08-12T08:27:29.200Z,6.20
2022-08-12T08:28:26.865Z,4.30
2022-08-12T08:29:27.890Z,3.50
2022-08-12T08:30:26.873Z,3.70
2022-08-12T08:31:26.830Z,3.60
2022-08-12T08:32:26.843Z,3.40
2022-08-12T08:34:08.935Z,4.00
2022-08-12T10:14:34.428Z,6.00
2022-08-12T10:15:15.260Z,4.10
2022-08-12T10:16:18.686Z,2.40
2022-08-12T10:17:13.452Z,4.20
2022-08-12T10:18:12.629Z,2.40
2022-08-12T10:19:17.351Z,2.00
2022-08-12T10:20:13.416Z,4.70
2022-08-12T10:21:12.399Z,2.10
2022-08-12T10:22:16.969Z,4.50
2022-08-12T10:23:13.377Z,6.10
2022-08-12T10:24:12.384Z,2.80
2022-08-12T10:25:17.373Z,3.20
2022-08-12T10:26:35.053Z,4.10
2022-08-12T10:27:15.782Z,3.60
2022-08-12T10:28:22.129Z,2.20
2022-08-12T10:30:01.337Z,4.00
2022-08-12T10:30:41.428Z,2.70
2022-08-12T10:31:16.390Z,3.10
2022-08-12T10:32:20.894Z,3.30
2022-08-12T10:33:18.165Z,4.30
2022-08-12T10:34:26.125Z,3.40
2022-08-12T10:35:14.691Z,5.80
2022-08-12T10:36:12.245Z,4.60
2022-08-12T10:38:05.748Z,3.40
2022-08-12T10:38:39.192Z,2.30
2022-08-12T10:39:59.982Z,4.90
2022-08-12T10:40:19.239Z,2.80
2022-08-12T10:41:19.061Z,3.90
2022-08-12T10:42:13.233Z,3.50
2022-08-12T10:43:12.210Z,3.80
2022-08-12T10:44:12.398Z,1.60
2022-08-12T10:45:18.066Z,2.60
2022-08-12T10:46:13.319Z,2.10
2022-08-12T10:48:01.622Z,4.00
2022-08-12T10:48:21.469Z,2.30
2022-08-12T10:50:06.950Z,3.00
2022-08-12T10:50:28.600Z,2.80
2022-08-12T10:52:34.393Z,4.00
2022-08-12T10:53:19.437Z,2.30
2022-08-12T10:54:13.166Z,3.20
2022-08-12T10:55:13.237Z,1.60
2022-08-12T10:56:12.049Z,1.50
2022-08-12T10:57:18.505Z,6.50
2022-08-12T10:58:30.974Z,4.20
2022-08-12T10:59:15.595Z,3.00
2022-08-12T11:00:34.375Z,3.60
2022-08-12T11:01:49.096Z,3.20
2022-08-12T11:04:23.558Z,3.80
2022-08-12T11:04:25.740Z,3.50
2022-08-12T11:04:31.477Z,3.50
2022-08-12T11:07:06.815Z,2.90
2022-08-12T11:07:08.363Z,3.80
2022-08-12T11:08:33.907Z,4.70
2022-08-12T11:08:37.619Z,2.20
2022-08-12T11:09:13.035Z,4.50
2022-08-12T11:10:11.950Z,2.60
2022-08-12T11:11:13.689Z,5.40
2022-08-12T11:12:55.609Z,2.10
2022-08-12T11:13:12.872Z,2.30
2022-08-12T11:14:47.966Z,1.20
2022-08-12T11:15:33.220Z,3.80
2022-08-12T11:16:22.130Z,5.40
2022-08-12T11:17:43.028Z,3.30
2022-08-12T11:18:18.311Z,4.70
2022-08-12T11:19:11.833Z,3.60
2022-08-12T11:20:20.740Z,4.00
2022-08-12T11:21:15.791Z,1.30
2022-08-12T11:22:12.953Z,3.90
2022-08-12T11:23:26.031Z,3.10
2022-08-12T11:24:30.648Z,3.30
2022-08-12T11:25:16.628Z,3.60
2022-08-12T11:26:12.902Z,2.30
2022-08-12T11:27:26.270Z,2.50
2022-08-12T11:28:20.606Z,5.00
2022-08-12T11:29:22.349Z,2.80
2022-08-12T11:30:31.081Z,2.50
2022-08-12T11:32:02.451Z,4.50
2022-08-12T11:32:22.454Z,6.50
2022-08-12T11:35:20.110Z,2.50
2022-08-12T11:35:23.065Z,2.20
2022-08-12T11:36:22.713Z,1.50
2022-08-12T11:37:26.407Z,1.90
2022-08-12T11:38:22.455Z,4.40
2022-08-12T11:40:23.556Z,2.90
2022-08-12T11:41:31.363Z,4.50
2022-08-12T11:43:18.987Z,3.80
2022-08-12T11:43:26.212Z,2.20
2022-08-12T11:44:35.278Z,4.80
2022-08-12T11:47:19.723Z,2.50
2022-08-12T11:47:21.203Z,2.50
2022-08-12T11:48:26.915Z,4.10
2022-08-12T11:49:30.764Z,3.90
2022-08-12T11:50:23.863Z,4.80
2022-08-12T11:51:22.195Z,4.30
2022-08-12T11:52:54.918Z,4.00
2022-08-12T11:53:58.282Z,1.80
2022-08-12T11:54:22.184Z,3.90
2022-08-12T11:55:23.173Z,4.30
2022-08-12T11:56:21.330Z,5.50
2022-08-12T11:58:09.538Z,3.30
2022-08-12T12:00:16.838Z,6.90
2022-08-12T12:02:00.955Z,4.90
2022-08-12T12:02:04.803Z,2.80
2022-08-12T12:02:25.983Z,2.20
2022-08-12T12:03:23.138Z,4.80
2022-08-12T12:04:28.991Z,3.60
2022-08-12T12:05:22.128Z,4.20
2022-08-12T12:06:22.537Z,3.50
2022-08-12T12:07:21.253Z,2.60
2022-08-12T12:08:37.393Z,1.90
2022-08-12T12:09:24.678Z,4.00
2022-08-12T12:10:29.228Z,2.90
2022-08-12T12:11:23.128Z,3.70
2022-08-12T12:12:21.441Z,3.10
2022-08-12T12:13:23.287Z,5.20
2022-08-12T12:14:37.801Z,3.30
2022-08-12T12:15:24.666Z,3.10
2022-08-12T12:16:21.013Z,4.10
2022-08-12T12:17:21.000Z,4.50
2022-08-12T12:18:22.478Z,2.30
2022-08-12T12:19:21.977Z,3.20
2022-08-12T12:20:20.963Z,5.00
2022-08-12T12:21:47.589Z,3.10
2022-08-12T12:22:26.783Z,4.40
2022-08-12T12:23:29.157Z,5.80
2022-08-12T12:24:22.529Z,3.80
2022-08-12T12:25:20.923Z,3.80
2022-08-12T12:26:35.259Z,3.10
2022-08-12T12:27:59.305Z,6.60
2022-08-12T12:28:38.143Z,3.60
2022-08-12T12:30:20.000Z,5.30
2022-08-12T12:30:37.471Z,1.80
2022-08-12T12:32:11.622Z,4.20
2022-08-12T12:32:29.342Z,5.00
2022-08-12T12:33:21.892Z,4.70
2022-08-12T12:34:30.169Z,2.40
2022-08-12T12:36:06.473Z,4.60
2022-08-12T12:36:29.770Z,3.50
2022-08-12T12:38:03.308Z,4.00
2022-08-12T12:38:25.170Z,2.40
2022-08-12T12:39:21.873Z,3.70
2022-08-12T12:40:21.230Z,2.90
2022-08-12T12:41:20.759Z,2.80
2022-08-12T12:42:42.889Z,3.60
2022-08-12T12:43:28.399Z,1.40
2022-08-12T12:44:26.002Z,1.70
2022-08-12T12:45:26.041Z,2.00
2022-08-12T12:46:20.772Z,2.90
2022-08-12T12:47:47.693Z,2.40
2022-08-12T12:48:33.258Z,8.30
2022-08-12T14:57:05.798Z,1.90
2022-08-12T14:57:23.458Z,2.40
2022-08-12T15:08:13.279Z,1.30
2022-08-12T15:09:19.122Z,1.80
2022-08-12T15:10:06.010Z,2.40
2022-08-12T15:11:21.695Z,3.50
2022-08-12T15:20:28.353Z,0.90
2022-08-12T15:20:37.540Z,3.10
2022-08-12T15:21:16.232Z,1.70
2022-08-12T15:22:38.382Z,2.30
2022-08-12T15:23:21.619Z,1.60
2022-08-12T15:24:15.456Z,4.10
2022-08-12T15:25:28.678Z,1.70
2022-08-12T15:26:20.647Z,1.90
2022-08-12T15:27:15.208Z,2.70
2022-08-12T15:28:21.559Z,2.10
2022-08-12T15:29:16.948Z,1.30
2022-08-12T15:30:15.118Z,3.00
2022-08-12T15:31:27.533Z,2.10
2022-08-12T15:32:16.294Z,5.20
2022-08-12T15:33:20.911Z,2.90
2022-08-12T15:34:16.059Z,3.50
2022-08-12T15:35:15.048Z,2.40
2022-08-12T15:36:19.509Z,4.00
2022-08-12T15:37:22.832Z,3.30
2022-08-12T15:38:19.469Z,2.00
2022-08-12T15:39:16.414Z,1.50
2022-08-12T15:40:15.059Z,2.50
2022-08-12T15:41:55.460Z,3.60
2022-08-12T15:42:21.835Z,3.20
2022-08-12T15:44:16.019Z,4.30
2022-08-12T15:44:38.353Z,2.50
2022-08-12T15:45:32.171Z,3.40
2022-08-12T15:46:28.049Z,2.80
2022-08-12T15:47:16.359Z,4.60
2022-08-12T15:48:20.279Z,1.70
2022-08-12T15:49:54.984Z,1.90
2022-08-12T15:50:26.729Z,3.10
2022-08-12T15:51:15.970Z,5.20
2022-08-12T15:52:19.152Z,6.20
2022-08-12T15:53:15.876Z,2.30
2022-08-12T15:54:34.275Z,2.70
2022-08-12T15:55:16.811Z,1.80
2022-08-12T15:56:14.844Z,3.80
2022-08-12T15:57:17.129Z,3.40
2022-08-12T15:58:16.742Z,3.50
2022-08-12T15:59:14.817Z,2.20
2022-08-12T16:00:22.461Z,5.40
2022-08-12T16:01:15.878Z,3.10
2022-08-12T16:02:14.801Z,2.90
2022-08-12T16:03:25.618Z,1.70
2022-08-12T16:04:17.104Z,4.10
2022-08-12T16:06:10.478Z,2.70
2022-08-12T16:06:31.179Z,4.30
2022-08-12T16:07:15.747Z,1.60
2022-08-12T16:08:21.187Z,5.90
2022-08-12T16:09:15.713Z,3.90
2022-08-12T16:10:15.742Z,2.90
2022-08-12T16:11:18.803Z,3.20
2022-08-12T16:12:14.873Z,2.80
2022-08-12T16:13:14.680Z,3.50
2022-08-12T16:14:14.662Z,3.30
2022-08-12T16:15:14.655Z,3.00
2022-08-12T16:16:23.631Z,5.10
2022-08-12T16:17:15.852Z,4.60
2022-08-12T16:18:19.650Z,2.50
2022-08-12T16:19:19.049Z,1.50
2022-08-12T16:20:15.609Z,3.10
2022-08-12T16:21:52.391Z,4.40
2022-08-12T16:22:15.610Z,4.30
2022-08-12T16:23:26.218Z,1.90
2022-08-12T16:24:15.567Z,5.90
2022-08-12T16:25:22.531Z,2.20
2022-08-12T16:26:20.459Z,3.40
2022-08-12T16:27:15.554Z,4.90
2022-08-12T16:28:14.535Z,2.20
2022-08-12T16:29:16.234Z,4.40
2022-08-12T16:30:14.514Z,2.50
2022-08-12T16:31:22.612Z,4.70
2022-08-12T16:32:15.506Z,1.20
2022-08-12T16:33:14.487Z,3.00
2022-08-12T16:34:26.035Z,3.40
2022-08-12T16:35:16.174Z,5.80
2022-08-12T16:36:18.775Z,2.40
2022-08-12T16:37:14.575Z,3.80
2022-08-12T16:38:27.775Z,1.30
2022-08-12T16:39:15.617Z,2.30
2022-08-12T16:40:15.539Z,2.50
2022-08-12T16:41:15.547Z,4.10
2022-08-12T16:42:15.570Z,4.70
2022-08-12T16:43:15.519Z,2.60
2022-08-12T16:44:19.496Z,2.30
2022-08-12T16:45:15.525Z,1.90
2022-08-12T16:46:31.165Z,3.90
2022-08-12T16:47:16.503Z,3.90
2022-08-12T16:48:33.703Z,4.00
2022-08-12T16:49:16.453Z,2.50
2022-08-12T16:50:15.445Z,3.40
2022-08-12T16:51:15.455Z,2.80
2022-08-12T16:52:16.405Z,4.40
2022-08-12T16:53:15.437Z,2.60
2022-08-12T16:54:16.479Z,2.60
2022-08-12T16:55:15.412Z,3.40
2022-08-12T16:56:15.808Z,2.50
2022-08-12T16:57:15.407Z,3.50
2022-08-12T16:58:28.454Z,2.60
2022-08-12T16:59:19.792Z,2.00
2022-08-12T17:00:15.383Z,2.80
2022-08-12T17:01:15.454Z,3.30
2022-08-12T17:02:31.963Z,5.60
2022-08-12T17:03:18.434Z,3.00
2022-08-12T17:04:16.330Z,3.10
2022-08-12T17:05:16.147Z,1.70
2022-08-12T17:06:19.656Z,2.30
2022-08-12T17:07:16.320Z,2.70
2022-08-12T17:08:15.541Z,2.70
2022-08-12T17:09:17.693Z,3.00
2022-08-12T17:10:18.353Z,2.70
2022-08-12T17:11:18.107Z,3.10
2022-08-12T17:12:15.253Z,3.80
2022-08-12T17:13:15.266Z,5.90
2022-08-12T17:14:15.243Z,2.90
2022-08-12T17:15:50.537Z,5.40
2022-08-12T17:16:17.973Z,11.00
2022-08-12T17:17:26.058Z,6.40
2022-08-12T17:18:43.341Z,5.70
2022-08-12T17:19:16.240Z,12.10
2022-08-12T17:20:36.087Z,5.40
2022-08-12T17:21:17.538Z,3.40
2022-08-12T17:22:15.233Z,4.40
2022-08-12T17:23:15.193Z,7.90
2022-08-12T17:24:15.809Z,4.20
2022-08-12T17:25:15.142Z,3.80
2022-08-12T17:26:15.146Z,2.50
2022-08-12T17:27:16.330Z,3.70
2022-08-12T17:28:16.669Z,3.10
2022-08-12T17:29:16.807Z,1.80
2022-08-12T17:30:15.099Z,5.90
2022-08-12T17:31:15.097Z,5.10
2022-08-12T17:32:16.098Z,4.80
2022-08-12T17:33:17.026Z,4.80
2022-08-12T17:34:17.285Z,5.60
2022-08-12T17:35:15.070Z,3.90